createdAt,value
2018-09-12T00:00:04.151Z,17.29
2018-09-12T00:01:04.146Z,17.20
2018-09-12T00:02:04.140Z,17.15
2018-09-12T00:03:04.135Z,17.23
2018-09-12T00:04:04.130Z,17.19
2018-09-12T00:05:04.125Z,17.09
2018-09-12T00:06:04.125Z,17.14
2018-09-12T00:07:04.113Z,17.08
2018-09-12T00:08:04.108Z,17.02
2018-09-12T00:09:04.103Z,16.97
2018-09-12T00:10:04.097Z,16.99
2018-09-12T00:11:04.092Z,17.02
2018-09-12T00:12:04.089Z,17.02
2018-09-12T00:13:04.081Z,16.99
2018-09-12T00:14:04.075Z,16.96
2018-09-12T00:15:04.070Z,17.04
2018-09-12T00:16:04.064Z,16.93
2018-09-12T00:17:04.060Z,17.01
2018-09-12T00:18:04.053Z,16.97
2018-09-12T00:19:04.048Z,17.04
2018-09-12T00:20:04.043Z,17.01
2018-09-12T00:21:04.048Z,17.01
2018-09-12T00:22:04.032Z,17.01
2018-09-12T00:23:04.026Z,17.01
2018-09-12T00:24:04.025Z,16.97
2018-09-12T00:25:04.016Z,16.96
2018-09-12T00:26:04.011Z,17.05
2018-09-12T00:27:04.006Z,16.97
2018-09-12T00:28:04.003Z,16.96
2018-09-12T00:29:03.994Z,16.96
2018-09-12T00:30:03.988Z,16.87
2018-09-12T00:31:03.984Z,16.87
2018-09-12T00:32:03.978Z,16.86
2018-09-12T00:33:03.971Z,16.86
2018-09-12T00:34:03.967Z,16.79
2018-09-12T00:35:03.961Z,16.75
2018-09-12T00:36:04.006Z,16.71
2018-09-12T00:37:03.950Z,16.68
2018-09-12T00:38:03.944Z,16.68
2018-09-12T00:39:03.939Z,16.65
2018-09-12T00:40:03.934Z,16.68
2018-09-12T00:41:03.928Z,16.68
2018-09-12T00:42:03.922Z,16.68
2018-09-12T00:43:03.916Z,16.65
2018-09-12T00:44:03.911Z,16.71
2018-09-12T00:45:03.906Z,16.64
2018-09-12T00:46:03.899Z,16.65
2018-09-12T00:47:03.899Z,16.69
2018-09-12T00:48:03.889Z,16.75
2018-09-12T00:49:03.884Z,16.76
2018-09-12T00:50:03.878Z,16.76
2018-09-12T00:51:03.872Z,16.72
2018-09-12T00:52:03.867Z,16.76
2018-09-12T00:53:03.862Z,16.78
2018-09-12T00:54:03.855Z,16.75
2018-09-12T00:55:03.849Z,16.75
2018-09-12T00:56:03.844Z,16.81
2018-09-12T00:57:03.842Z,16.78
2018-09-12T00:58:03.832Z,16.84
2018-09-12T00:59:03.826Z,16.86
2018-09-12T01:00:03.832Z,16.87
2018-09-12T01:01:03.815Z,16.76
2018-09-12T01:02:03.819Z,16.74
2018-09-12T01:03:03.803Z,16.75
2018-09-12T01:04:03.799Z,16.75
2018-09-12T01:05:03.793Z,16.78
2018-09-12T01:06:03.786Z,16.65
2018-09-12T01:07:03.781Z,16.66
2018-09-12T01:08:03.775Z,16.60
2018-09-12T01:09:03.770Z,16.57
2018-09-12T01:10:03.763Z,16.51
2018-09-12T01:11:03.758Z,16.47
2018-09-12T01:12:03.753Z,16.47
2018-09-12T01:13:03.748Z,16.38
2018-09-12T01:14:03.741Z,16.38
2018-09-12T01:15:03.735Z,16.36
2018-09-12T01:16:03.729Z,16.39
2018-09-12T01:17:03.724Z,16.33
2018-09-12T01:18:03.718Z,16.32
2018-09-12T01:19:03.712Z,16.29
2018-09-12T01:20:03.706Z,16.23
2018-09-12T01:21:03.707Z,16.21
2018-09-12T01:22:03.698Z,16.24
2018-09-12T01:23:03.689Z,16.26
2018-09-12T01:24:03.684Z,16.32
2018-09-12T01:25:03.681Z,16.24
2018-09-12T01:26:03.672Z,16.08
2018-09-12T01:27:03.666Z,16.10
2018-09-12T01:28:03.660Z,16.09
2018-09-12T01:29:03.659Z,16.08
2018-09-12T01:30:03.652Z,16.08
2018-09-12T01:31:03.643Z,16.10
2018-09-12T01:32:03.638Z,16.13
2018-09-12T01:33:03.632Z,16.10
2018-09-12T01:34:03.625Z,16.08
2018-09-12T01:35:03.620Z,16.09
2018-09-12T01:36:03.616Z,16.10
2018-09-12T01:37:03.608Z,16.08
2018-09-12T01:38:03.602Z,16.23
2018-09-12T01:39:03.599Z,16.16
2018-09-12T01:40:03.591Z,16.29
2018-09-12T01:41:03.587Z,16.17
2018-09-12T01:42:03.578Z,16.28
2018-09-12T01:43:03.573Z,16.26
2018-09-12T01:44:03.566Z,16.23
2018-09-12T01:45:03.561Z,16.33
2018-09-12T01:46:03.553Z,16.35
2018-09-12T01:47:03.580Z,16.29
2018-09-12T01:48:03.543Z,16.35
2018-09-12T01:49:03.537Z,16.35
2018-09-12T01:50:03.531Z,16.20
2018-09-12T01:51:03.525Z,16.31
2018-09-12T01:52:03.519Z,16.33
2018-09-12T01:53:03.512Z,16.36
2018-09-12T01:54:03.505Z,16.36
2018-09-12T01:55:03.500Z,16.31
2018-09-12T01:56:03.497Z,16.23
2018-09-12T01:57:03.491Z,16.33
2018-09-12T01:58:03.485Z,16.29
2018-09-12T01:59:03.476Z,16.33
2018-09-12T02:00:03.476Z,16.33
2018-09-12T02:01:03.465Z,16.32
2018-09-12T02:02:03.458Z,16.21
2018-09-12T02:03:03.453Z,16.21
2018-09-12T02:04:03.447Z,16.17
2018-09-12T02:05:03.441Z,16.29
2018-09-12T02:06:03.434Z,16.32
2018-09-12T02:07:03.428Z,16.21
2018-09-12T02:08:03.424Z,16.26
2018-09-12T02:09:03.417Z,16.28
2018-09-12T02:10:03.411Z,16.23
2018-09-12T02:11:03.404Z,16.16
2018-09-12T02:12:03.400Z,16.23
2018-09-12T02:13:03.395Z,16.29
2018-09-12T02:14:03.385Z,16.12
2018-09-12T02:15:03.380Z,16.05
2018-09-12T02:16:03.374Z,16.10
2018-09-12T02:17:03.368Z,16.08
2018-09-12T02:18:03.361Z,16.04
2018-09-12T02:19:03.354Z,16.09
2018-09-12T02:20:03.350Z,16.28
2018-09-12T02:21:03.344Z,16.24
2018-09-12T02:22:03.337Z,16.05
2018-09-12T02:23:03.331Z,16.08
2018-09-12T02:24:03.333Z,16.09
2018-09-12T02:25:03.320Z,16.15
2018-09-12T02:26:03.313Z,16.12
2018-09-12T02:27:03.311Z,16.09
2018-09-12T02:28:03.301Z,16.09
2018-09-12T02:29:03.497Z,16.10
2018-09-12T02:30:03.300Z,16.12
2018-09-12T02:31:03.287Z,16.09
2018-09-12T02:32:03.277Z,16.13
2018-09-12T02:33:03.272Z,16.13
2018-09-12T02:34:03.264Z,16.08
2018-09-12T02:35:03.258Z,16.02
2018-09-12T02:36:03.251Z,16.10
2018-09-12T02:37:03.249Z,16.04
2018-09-12T02:38:03.243Z,16.01
2018-09-12T02:39:03.234Z,16.01
2018-09-12T02:40:03.227Z,15.98
2018-09-12T02:41:03.224Z,16.02
2018-09-12T02:42:03.215Z,16.05
2018-09-12T02:43:03.209Z,15.97
2018-09-12T02:44:03.202Z,15.97
2018-09-12T02:45:03.196Z,15.97
2018-09-12T02:46:03.192Z,15.84
2018-09-12T02:47:03.184Z,15.84
2018-09-12T02:48:03.178Z,15.88
2018-09-12T02:49:03.172Z,15.88
2018-09-12T02:50:03.166Z,15.91
2018-09-12T02:51:03.159Z,15.83
2018-09-12T02:52:03.158Z,15.77
2018-09-12T02:53:03.147Z,15.75
2018-09-12T02:54:03.140Z,15.62
2018-09-12T02:55:03.139Z,15.68
2018-09-12T02:56:03.129Z,15.65
2018-09-12T02:57:03.122Z,15.57
2018-09-12T02:58:03.116Z,15.52
2018-09-12T02:59:03.110Z,15.58
2018-09-12T03:00:03.113Z,15.57
2018-09-12T03:01:03.098Z,15.58
2018-09-12T03:02:03.092Z,15.59
2018-09-12T03:03:03.085Z,15.62
2018-09-12T03:04:03.078Z,15.58
2018-09-12T03:05:03.076Z,15.52
2018-09-12T03:06:03.069Z,15.59
2018-09-12T03:07:03.063Z,15.57
2018-09-12T03:08:03.099Z,15.54
2018-09-12T03:09:03.049Z,15.64
2018-09-12T03:10:03.041Z,15.57
2018-09-12T03:11:03.035Z,15.55
2018-09-12T03:12:03.029Z,15.59
2018-09-12T03:13:03.026Z,15.55
2018-09-12T03:14:03.016Z,15.54
2018-09-12T03:15:03.012Z,15.58
2018-09-12T03:16:03.011Z,15.57
2018-09-12T03:17:02.999Z,15.55
2018-09-12T03:18:02.992Z,15.64
2018-09-12T03:19:02.985Z,15.68
2018-09-12T03:20:02.979Z,15.58
2018-09-12T03:21:03.129Z,15.62
2018-09-12T03:22:02.966Z,15.58
2018-09-12T03:23:02.960Z,15.64
2018-09-12T03:24:02.953Z,15.61
2018-09-12T03:25:02.948Z,15.64
2018-09-12T03:26:02.942Z,15.64
2018-09-12T03:27:03.185Z,15.64
2018-09-12T03:28:02.929Z,15.57
2018-09-12T03:29:02.925Z,15.57
2018-09-12T03:30:02.914Z,15.58
2018-09-12T03:31:02.912Z,15.57
2018-09-12T03:32:02.904Z,15.58
2018-09-12T03:33:02.899Z,15.54
2018-09-12T03:34:02.890Z,15.54
2018-09-12T03:35:02.894Z,15.44
2018-09-12T03:36:02.878Z,15.47
2018-09-12T03:37:02.871Z,15.43
2018-09-12T03:38:02.865Z,15.51
2018-09-12T03:39:02.863Z,15.58
2018-09-12T03:40:02.854Z,15.61
2018-09-12T03:41:02.846Z,15.52
2018-09-12T03:42:02.855Z,15.55
2018-09-12T03:43:02.836Z,15.58
2018-09-12T03:44:02.827Z,15.57
2018-09-12T03:45:02.820Z,15.58
2018-09-12T03:46:02.814Z,15.55
2018-09-12T03:47:02.807Z,15.51
2018-09-12T03:48:02.872Z,15.46
2018-09-12T03:49:02.800Z,15.39
2018-09-12T03:50:02.787Z,15.43
2018-09-12T03:51:02.783Z,15.37
2018-09-12T03:52:02.775Z,15.36
2018-09-12T03:53:02.769Z,15.22
2018-09-12T03:54:02.761Z,15.31
2018-09-12T03:55:02.756Z,15.27
2018-09-12T03:56:02.750Z,15.29
2018-09-12T03:57:02.744Z,15.27
2018-09-12T03:58:02.736Z,15.18
2018-09-12T03:59:02.734Z,15.19
2018-09-12T04:00:02.726Z,15.21
2018-09-12T04:01:02.716Z,15.17
2018-09-12T04:02:02.711Z,15.07
2018-09-12T04:03:02.705Z,15.19
2018-09-12T04:04:02.697Z,15.19
2018-09-12T04:05:02.692Z,15.15
2018-09-12T04:06:02.685Z,15.09
2018-09-12T04:07:02.678Z,15.11
2018-09-12T04:08:02.672Z,15.09
2018-09-12T04:09:02.666Z,15.11
2018-09-12T04:10:02.663Z,15.04
2018-09-12T04:11:02.652Z,14.99
2018-09-12T04:12:02.646Z,14.99
2018-09-12T04:13:02.649Z,15.00
2018-09-12T04:14:02.632Z,14.94
2018-09-12T04:15:02.632Z,15.06
2018-09-12T04:16:02.620Z,15.00
2018-09-12T04:17:02.749Z,15.04
2018-09-12T04:18:02.608Z,15.03
2018-09-12T04:19:02.602Z,14.99
2018-09-12T04:20:02.597Z,14.94
2018-09-12T04:21:02.591Z,15.03
2018-09-12T04:22:02.582Z,14.94
2018-09-12T04:23:02.574Z,14.94
2018-09-12T04:24:02.573Z,14.96
2018-09-12T04:25:02.581Z,14.96
2018-09-12T04:26:02.554Z,14.99
2018-09-12T04:27:02.548Z,15.03
2018-09-12T04:28:02.543Z,14.97
2018-09-12T04:29:02.536Z,14.99
2018-09-12T04:30:02.530Z,14.96
2018-09-12T04:31:02.521Z,15.04
2018-09-12T04:32:02.516Z,15.02
2018-09-12T04:33:02.509Z,15.03
2018-09-12T04:34:02.502Z,15.07
2018-09-12T04:35:02.495Z,15.06
2018-09-12T04:36:02.489Z,15.14
2018-09-12T04:37:02.483Z,15.21
2018-09-12T04:38:02.475Z,15.19
2018-09-12T04:39:02.469Z,15.21
2018-09-12T04:40:02.462Z,15.17
2018-09-12T04:41:02.462Z,15.15
2018-09-12T04:42:02.464Z,15.11
2018-09-12T04:43:02.445Z,15.14
2018-09-12T04:45:02.435Z,15.15
2018-09-12T04:46:02.422Z,15.06
2018-09-12T04:47:02.420Z,15.09
2018-09-12T04:48:02.411Z,15.11
2018-09-12T04:49:02.402Z,15.09
2018-09-12T04:50:02.395Z,15.00
2018-09-12T04:51:02.390Z,14.97
2018-09-12T04:52:03.582Z,14.91
2018-09-12T04:53:02.376Z,14.77
2018-09-12T04:54:02.369Z,14.89
2018-09-12T04:55:02.364Z,14.81
2018-09-12T04:56:02.357Z,14.69
2018-09-12T04:57:02.350Z,14.69
2018-09-12T04:58:02.343Z,14.72
2018-09-12T04:59:02.342Z,14.69
2018-09-12T05:00:02.333Z,14.70
2018-09-12T05:01:02.330Z,14.77
2018-09-12T05:02:02.316Z,14.72
2018-09-12T05:03:02.320Z,14.72
2018-09-12T05:04:02.304Z,14.69
2018-09-12T05:05:02.320Z,14.82
2018-09-12T05:06:02.295Z,14.79
2018-09-12T05:07:02.282Z,14.81
2018-09-12T05:08:02.282Z,14.84
2018-09-12T05:09:02.272Z,14.82
2018-09-12T05:10:02.308Z,14.89
2018-09-12T05:11:02.260Z,15.02
2018-09-12T05:12:02.255Z,15.00
2018-09-12T05:13:02.243Z,14.91
2018-09-12T05:14:02.235Z,14.94
2018-09-12T05:15:02.229Z,14.96
2018-09-12T05:16:02.299Z,14.92
2018-09-12T05:17:02.221Z,14.89
2018-09-12T05:18:02.213Z,14.97
2018-09-12T05:19:02.202Z,14.91
2018-09-12T05:20:02.196Z,15.09
2018-09-12T05:21:02.194Z,15.07
2018-09-12T05:22:02.181Z,15.07
2018-09-12T05:23:02.175Z,14.97
2018-09-12T05:24:02.169Z,15.07
2018-09-12T05:25:02.163Z,15.10
2018-09-12T05:26:02.157Z,15.15
2018-09-12T05:27:02.151Z,15.18
2018-09-12T05:28:02.144Z,15.25
2018-09-12T05:29:02.137Z,15.28
2018-09-12T05:30:02.130Z,15.28
2018-09-12T05:31:02.123Z,15.28
2018-09-12T05:32:02.118Z,15.27
2018-09-12T05:33:02.115Z,15.21
2018-09-12T05:34:03.518Z,15.29
2018-09-12T05:35:02.109Z,15.36
2018-09-12T05:36:02.096Z,15.39
2018-09-12T05:37:02.286Z,15.51
2018-09-12T05:38:02.078Z,15.43
2018-09-12T05:39:02.074Z,15.39
2018-09-12T05:40:02.065Z,15.49
2018-09-12T05:41:02.060Z,15.52
2018-09-12T05:42:02.054Z,15.64
2018-09-12T05:43:02.046Z,15.65
2018-09-12T05:44:02.040Z,15.80
2018-09-12T05:45:02.040Z,15.80
2018-09-12T05:46:02.028Z,15.80
2018-09-12T05:47:02.018Z,15.84
2018-09-12T05:48:02.014Z,15.90
2018-09-12T05:49:02.007Z,15.82
2018-09-12T05:50:02.052Z,15.84
2018-09-12T05:51:01.996Z,16.00
2018-09-12T05:52:01.986Z,16.01
2018-09-12T05:53:01.985Z,15.95
2018-09-12T05:54:01.974Z,15.95
2018-09-12T05:55:01.980Z,16.00
2018-09-12T05:56:01.962Z,15.86
2018-09-12T05:57:01.955Z,15.95
2018-09-12T05:58:01.950Z,15.97
2018-09-12T05:59:01.943Z,15.94
2018-09-12T06:00:01.937Z,15.86
2018-09-12T06:01:01.931Z,15.88
2018-09-12T06:02:01.924Z,15.86
2018-09-12T06:03:01.917Z,15.88
2018-09-12T06:04:01.912Z,15.88
2018-09-12T06:05:01.911Z,15.97
2018-09-12T06:06:01.902Z,16.10
2018-09-12T06:07:02.039Z,16.13
2018-09-12T06:08:01.887Z,16.33
2018-09-12T06:09:01.890Z,16.35
2018-09-12T06:10:01.876Z,16.58
2018-09-12T06:11:01.873Z,16.68
2018-09-12T06:12:01.870Z,16.65
2018-09-12T06:13:01.858Z,16.72
2018-09-12T06:14:01.880Z,16.74
2018-09-12T06:15:01.844Z,16.87
2018-09-12T06:16:01.841Z,16.96
2018-09-12T06:17:01.833Z,17.04
2018-09-12T06:18:01.826Z,17.15
2018-09-12T06:19:01.821Z,17.22
2018-09-12T06:20:01.816Z,17.27
2018-09-12T06:21:01.813Z,17.33
2018-09-12T06:22:01.803Z,17.41
2018-09-12T06:23:01.798Z,17.38
2018-09-12T06:24:01.792Z,17.45
2018-09-12T06:25:01.790Z,17.59
2018-09-12T06:26:01.783Z,17.67
2018-09-12T06:27:01.784Z,17.68
2018-09-12T06:28:01.774Z,17.70
2018-09-12T06:29:01.764Z,17.85
2018-09-12T06:30:01.962Z,17.86
2018-09-12T06:31:01.756Z,17.89
2018-09-12T06:32:01.748Z,17.94
2018-09-12T06:33:01.742Z,17.97
2018-09-12T06:34:01.741Z,18.03
2018-09-12T06:35:01.731Z,18.04
2018-09-12T06:36:01.728Z,18.15
2018-09-12T06:37:01.724Z,18.19
2018-09-12T06:38:01.718Z,18.15
2018-09-12T06:39:01.714Z,18.10
2018-09-12T06:40:01.713Z,18.11
2018-09-12T06:41:01.698Z,18.11
2018-09-12T06:42:01.695Z,18.22
2018-09-12T06:43:01.688Z,18.22
2018-09-12T06:44:01.687Z,18.22
2018-09-12T06:45:01.679Z,18.29
2018-09-12T06:46:01.674Z,18.28
2018-09-12T06:47:01.675Z,18.33
2018-09-12T06:48:01.664Z,18.43
2018-09-12T06:49:01.658Z,18.41
2018-09-12T06:50:01.855Z,18.43
2018-09-12T06:51:01.650Z,18.45
2018-09-12T06:52:01.643Z,18.52
2018-09-12T06:53:01.643Z,18.56
2018-09-12T06:54:01.635Z,18.65
2018-09-12T06:55:01.627Z,18.75
2018-09-12T06:56:01.629Z,18.78
2018-09-12T06:57:01.618Z,18.95
2018-09-12T06:58:01.612Z,18.92
2018-09-12T06:59:01.611Z,18.95
2018-09-12T07:00:01.603Z,18.90
2018-09-12T07:01:01.716Z,18.92
2018-09-12T07:02:01.594Z,19.04
2018-09-12T07:03:01.588Z,19.14
2018-09-12T07:04:01.584Z,19.22
2018-09-12T07:05:01.578Z,19.31
2018-09-12T07:06:01.574Z,19.26
2018-09-12T07:07:01.569Z,19.37
2018-09-12T07:08:01.565Z,19.29
2018-09-12T07:09:01.560Z,19.39
2018-09-12T07:10:01.558Z,19.41
2018-09-12T07:11:01.550Z,19.48
2018-09-12T07:12:01.551Z,19.49
2018-09-12T07:13:01.544Z,19.63
2018-09-12T07:14:01.584Z,19.69
2018-09-12T07:15:01.534Z,19.67
2018-09-12T07:16:01.730Z,19.82
2018-09-12T07:17:01.524Z,19.91
2018-09-12T07:18:01.519Z,19.95
2018-09-12T07:19:01.517Z,20.03
2018-09-12T07:20:01.511Z,20.03
2018-09-12T07:21:01.513Z,20.16
2018-09-12T07:22:01.506Z,20.16
2018-09-12T07:23:01.504Z,20.19
2018-09-12T07:24:01.496Z,20.19
2018-09-12T07:25:01.695Z,20.26
2018-09-12T07:26:01.489Z,20.40
2018-09-12T07:27:01.688Z,20.40
2018-09-12T07:28:01.483Z,20.41
2018-09-12T07:29:01.480Z,20.48
2018-09-12T07:30:01.476Z,20.55
2018-09-12T07:31:01.474Z,20.63
2018-09-12T07:32:01.471Z,20.72
2018-09-12T07:33:01.468Z,20.72
2018-09-12T07:34:01.471Z,20.58
2018-09-12T07:35:01.663Z,20.43
2018-09-12T07:36:01.461Z,20.36
2018-09-12T07:37:01.457Z,20.28
2018-09-12T07:38:01.457Z,20.47
2018-09-12T07:39:01.453Z,20.29
2018-09-12T07:40:01.653Z,20.29
2018-09-12T07:41:01.449Z,20.34
2018-09-12T07:42:01.448Z,20.59
2018-09-12T07:43:01.449Z,20.72
2018-09-12T07:44:01.450Z,20.75
2018-09-12T07:45:01.449Z,20.81
2018-09-12T07:46:01.445Z,20.87
2018-09-12T07:47:01.445Z,20.77
2018-09-12T07:48:01.445Z,20.87
2018-09-12T07:49:01.511Z,20.99
2018-09-12T07:50:01.448Z,20.85
2018-09-12T07:51:01.455Z,20.85
2018-09-12T07:52:01.451Z,20.96
2018-09-12T07:53:01.455Z,21.18
2018-09-12T07:54:01.454Z,21.12
2018-09-12T07:55:01.456Z,21.17
2018-09-12T07:56:01.598Z,21.37
2018-09-12T07:57:01.662Z,21.62
2018-09-12T07:58:01.463Z,21.89
2018-09-12T07:59:01.481Z,21.95
2018-09-12T08:00:01.550Z,22.14
2018-09-12T08:01:01.475Z,22.13
2018-09-12T08:02:01.479Z,22.04
2018-09-12T08:03:01.686Z,22.08
2018-09-12T08:04:01.485Z,22.08
2018-09-12T08:05:01.521Z,22.10
2018-09-12T08:06:01.695Z,22.13
2018-09-12T08:07:01.699Z,22.29
2018-09-12T08:08:01.502Z,22.35
2018-09-12T08:09:01.507Z,22.38
2018-09-12T08:10:01.511Z,22.38
2018-09-12T08:11:01.521Z,22.60
2018-09-12T08:12:01.533Z,22.63
2018-09-12T08:13:01.527Z,22.80
2018-09-12T08:14:01.530Z,22.91
2018-09-12T08:15:01.540Z,22.91
2018-09-12T08:16:01.543Z,22.96
2018-09-12T08:17:01.604Z,22.87
2018-09-12T08:18:01.554Z,22.91
2018-09-12T08:19:01.660Z,22.80
2018-09-12T08:20:01.566Z,22.84
2018-09-12T08:21:01.572Z,22.99
2018-09-12T08:22:01.579Z,23.18
2018-09-12T08:23:01.582Z,23.31
2018-09-12T08:24:01.590Z,23.50
2018-09-12T08:25:01.597Z,23.65
2018-09-12T08:26:01.810Z,23.68
2018-09-12T08:27:01.610Z,23.87
2018-09-12T08:28:01.621Z,23.83
2018-09-12T08:29:01.624Z,23.83
2018-09-12T08:30:01.631Z,23.93
2018-09-12T08:31:01.638Z,24.11
2018-09-12T08:32:01.646Z,23.93
2018-09-12T08:33:01.655Z,23.91
2018-09-12T08:34:01.666Z,23.98
2018-09-12T08:35:01.667Z,24.03
2018-09-12T08:36:01.676Z,24.20
2018-09-12T08:37:01.689Z,24.08
2018-09-12T08:38:01.691Z,24.20
2018-09-12T08:39:01.737Z,24.55
2018-09-12T08:40:01.707Z,24.98
2018-09-12T08:41:02.127Z,25.22
2018-09-12T08:42:01.765Z,25.17
2018-09-12T08:43:01.739Z,25.28
2018-09-12T08:44:01.743Z,25.21
2018-09-12T08:45:01.749Z,25.14
2018-09-12T08:46:01.762Z,24.61
2018-09-12T08:47:01.766Z,24.48
2018-09-12T08:48:01.774Z,24.38
2018-09-12T08:49:01.786Z,24.35
2018-09-12T08:50:01.794Z,24.29
2018-09-12T08:51:01.805Z,24.33
2018-09-12T08:52:01.813Z,24.33
2018-09-12T08:53:01.904Z,24.20
2018-09-12T08:54:01.823Z,24.36
2018-09-12T08:55:01.832Z,24.38
2018-09-12T08:56:01.839Z,24.50
2018-09-12T08:57:01.849Z,24.54
2018-09-12T08:58:01.861Z,24.43
2018-09-12T08:59:01.867Z,24.50
2018-09-12T09:00:01.872Z,24.39
2018-09-12T09:01:01.880Z,24.80
2018-09-12T09:02:02.091Z,24.78
2018-09-12T09:03:01.898Z,24.57
2018-09-12T09:04:01.957Z,24.74
2018-09-12T09:05:01.914Z,24.85
2018-09-12T09:06:01.922Z,24.81
2018-09-12T09:07:01.936Z,25.08
2018-09-12T09:08:01.951Z,25.21
2018-09-12T09:09:01.950Z,25.43
2018-09-12T09:11:01.967Z,25.66
2018-09-12T09:12:01.977Z,25.66
2018-09-12T09:13:01.988Z,25.73
2018-09-12T09:14:01.994Z,25.51
2018-09-12T09:15:02.004Z,25.55
2018-09-12T09:16:02.018Z,25.41
2018-09-12T09:17:02.022Z,25.32
2018-09-12T09:18:02.034Z,25.40
2018-09-12T09:19:02.041Z,25.32
2018-09-12T09:20:02.253Z,25.25
2018-09-12T09:21:02.059Z,25.21
2018-09-12T09:22:02.069Z,25.25
2018-09-12T09:23:02.076Z,25.55
2018-09-12T09:24:02.288Z,25.80
2018-09-12T09:25:02.097Z,26.00
2018-09-12T09:26:02.105Z,26.21
2018-09-12T09:27:02.118Z,26.34
2018-09-12T09:28:02.127Z,26.47
2018-09-12T09:29:02.341Z,26.58
2018-09-12T09:30:02.149Z,26.15
2018-09-12T09:31:02.159Z,26.15
2018-09-12T09:33:02.176Z,25.88
2018-09-12T09:34:02.187Z,26.03
2018-09-12T09:35:02.297Z,25.90
2018-09-12T09:36:02.204Z,26.13
2018-09-12T09:37:02.213Z,26.16
2018-09-12T09:38:02.230Z,26.28
2018-09-12T09:39:02.234Z,26.28
2018-09-12T09:40:02.246Z,26.18
2018-09-12T09:41:02.474Z,26.00
2018-09-12T09:42:02.263Z,25.96
2018-09-12T09:43:02.476Z,26.19
2018-09-12T09:44:02.298Z,26.38
2018-09-12T09:45:02.297Z,26.66
2018-09-12T09:46:02.307Z,26.48
2018-09-12T09:47:02.314Z,26.53
2018-09-12T09:48:02.390Z,26.68
2018-09-12T09:49:02.336Z,26.85
2018-09-12T09:50:02.353Z,26.95
2018-09-12T09:51:02.562Z,26.93
2018-09-12T09:52:02.774Z,26.85
2018-09-12T09:53:02.377Z,26.89
2018-09-12T09:54:02.388Z,26.89
2018-09-12T09:55:02.463Z,26.96
2018-09-12T09:56:02.410Z,26.97
2018-09-12T09:57:02.420Z,27.08
2018-09-12T09:58:02.431Z,27.07
2018-09-12T09:59:02.692Z,27.15
2018-09-12T10:00:02.453Z,27.14
2018-09-12T10:01:02.464Z,27.33
2018-09-12T10:02:02.474Z,27.44
2018-09-12T10:03:02.488Z,27.44
2018-09-12T10:04:02.698Z,27.54
2018-09-12T10:05:02.508Z,27.87
2018-09-12T10:06:02.586Z,28.15
2018-09-12T10:07:02.531Z,28.01
2018-09-12T10:08:02.545Z,28.26
2018-09-12T10:09:02.559Z,28.27
2018-09-12T10:10:02.569Z,28.20
2018-09-12T10:11:02.583Z,27.83
2018-09-12T10:12:02.593Z,27.86
2018-09-12T10:13:02.612Z,28.47
2018-09-12T10:14:02.613Z,28.76
2018-09-12T10:15:02.626Z,28.78
2018-09-12T10:16:02.640Z,28.69
2018-09-12T10:17:02.654Z,28.25
2018-09-12T10:18:02.665Z,27.89
2018-09-12T10:19:02.683Z,27.55
2018-09-12T10:20:02.689Z,27.44
2018-09-12T10:21:02.704Z,27.39
2018-09-12T10:22:02.711Z,26.68
2018-09-12T10:23:02.718Z,26.25
2018-09-12T10:24:02.733Z,26.03
2018-09-12T10:25:02.738Z,25.66
2018-09-12T10:26:02.746Z,25.60
2018-09-12T10:27:02.753Z,25.46
2018-09-12T10:28:02.760Z,25.50
2018-09-12T10:29:02.777Z,25.46
2018-09-12T10:30:02.776Z,25.31
2018-09-12T10:31:02.784Z,25.32
2018-09-12T10:32:02.987Z,25.03
2018-09-12T10:33:02.796Z,24.96
2018-09-12T10:34:02.798Z,24.91
2018-09-12T10:35:02.801Z,24.89
2018-09-12T10:36:02.806Z,24.84
2018-09-12T10:37:02.818Z,24.84
2018-09-12T10:38:02.818Z,24.54
2018-09-12T10:39:02.819Z,24.30
2018-09-12T10:40:02.832Z,24.03
2018-09-12T10:41:02.891Z,24.06
2018-09-12T10:42:02.829Z,24.23
2018-09-12T10:43:02.834Z,24.54
2018-09-12T10:44:02.840Z,24.60
2018-09-12T10:45:02.842Z,24.86
2018-09-12T10:46:02.844Z,25.14
2018-09-12T10:47:02.848Z,25.28
2018-09-12T10:48:02.853Z,25.63
2018-09-12T10:49:02.860Z,25.83
2018-09-12T10:50:02.861Z,26.19
2018-09-12T10:51:02.877Z,26.68
2018-09-12T10:52:02.881Z,26.88
2018-09-12T10:53:02.884Z,26.65
2018-09-12T10:54:02.889Z,26.83
2018-09-12T10:55:02.899Z,26.88
2018-09-12T10:56:02.912Z,26.92
2018-09-12T10:57:02.917Z,26.90
2018-09-12T10:58:02.922Z,26.92
2018-09-12T10:59:02.985Z,26.95
2018-09-12T11:00:02.942Z,26.84
2018-09-12T11:01:02.948Z,27.07
2018-09-12T11:02:02.963Z,27.18
2018-09-12T11:03:02.967Z,27.35
2018-09-12T11:04:02.974Z,27.51
2018-09-12T11:05:02.984Z,27.54
2018-09-12T11:06:02.994Z,27.48
2018-09-12T11:07:03.008Z,27.40
2018-09-12T11:08:03.018Z,27.22
2018-09-12T11:09:03.025Z,27.25
2018-09-12T11:10:03.240Z,27.29
2018-09-12T11:11:03.044Z,27.45
2018-09-12T11:12:03.061Z,27.59
2018-09-12T11:13:03.074Z,27.82
2018-09-12T11:14:03.283Z,27.96
2018-09-12T11:15:03.105Z,27.92
2018-09-12T11:16:03.101Z,27.75
2018-09-12T11:17:03.109Z,27.21
2018-09-12T11:18:03.124Z,27.14
2018-09-12T11:19:03.129Z,27.05
2018-09-12T11:20:03.179Z,26.93
2018-09-12T11:21:03.354Z,26.93
2018-09-12T11:22:03.160Z,26.93
2018-09-12T11:23:03.178Z,27.02
2018-09-12T11:24:03.249Z,27.15
2018-09-12T11:25:03.188Z,27.22
2018-09-12T11:26:03.197Z,27.15
2018-09-12T11:27:03.210Z,27.00
2018-09-12T11:28:03.214Z,26.84
2018-09-12T11:29:03.226Z,26.85
2018-09-12T11:30:03.229Z,26.78
2018-09-12T11:31:03.240Z,26.56
2018-09-12T11:32:03.447Z,26.84
2018-09-12T11:33:03.252Z,27.20
2018-09-12T11:34:03.296Z,27.20
2018-09-12T11:35:03.276Z,27.05
2018-09-12T11:36:03.276Z,27.37
2018-09-12T11:38:03.292Z,28.26
2018-09-12T11:39:03.309Z,28.48
2018-09-12T11:40:03.369Z,28.64
2018-09-12T11:41:03.522Z,28.98
2018-09-12T11:42:03.330Z,29.36
2018-09-12T11:43:03.340Z,29.54
2018-09-12T11:44:03.356Z,29.66
2018-09-12T11:45:03.365Z,29.76
2018-09-12T11:46:03.373Z,29.71
2018-09-12T11:47:03.382Z,29.16
2018-09-12T11:48:03.599Z,28.63
2018-09-12T11:49:03.431Z,28.41
2018-09-12T11:50:03.413Z,28.57
2018-09-12T11:51:03.425Z,28.76
2018-09-12T11:52:03.439Z,28.81
2018-09-12T11:53:03.444Z,28.81
2018-09-12T11:54:03.453Z,28.88
2018-09-12T11:55:03.464Z,28.57
2018-09-12T11:56:03.475Z,28.60
2018-09-12T11:57:03.686Z,28.96
2018-09-12T11:58:03.497Z,29.07
2018-09-12T11:59:03.704Z,29.32
2018-09-12T12:00:03.518Z,29.68
2018-09-12T12:01:03.525Z,29.68
2018-09-12T12:02:03.573Z,29.75
2018-09-12T12:03:03.545Z,29.42
2018-09-12T12:04:03.556Z,29.16
2018-09-12T12:05:03.571Z,28.89
2018-09-12T12:06:03.588Z,28.74
2018-09-12T12:07:03.591Z,28.76
2018-09-12T12:08:03.598Z,28.84
2018-09-12T12:09:03.608Z,28.75
2018-09-12T12:10:03.614Z,28.70
2018-09-12T12:11:03.623Z,28.64
2018-09-12T12:12:03.838Z,28.41
2018-09-12T12:13:03.644Z,27.49
2018-09-12T12:14:03.654Z,27.17
2018-09-12T12:15:03.657Z,27.35
2018-09-12T12:16:03.867Z,27.58
2018-09-12T12:17:03.672Z,27.92
2018-09-12T12:18:03.681Z,27.90
2018-09-12T12:19:03.688Z,27.95
2018-09-12T12:20:03.695Z,27.87
2018-09-12T12:21:03.703Z,27.85
2018-09-12T12:22:03.708Z,28.32
2018-09-12T12:23:03.731Z,28.75
2018-09-12T12:24:03.724Z,29.10
2018-09-12T12:25:03.732Z,29.23
2018-09-12T12:26:03.745Z,29.44
2018-09-12T12:27:03.748Z,29.66
2018-09-12T12:28:03.759Z,29.44
2018-09-12T12:29:03.771Z,29.59
2018-09-12T12:30:03.770Z,29.84
2018-09-12T12:31:03.786Z,29.79
2018-09-12T12:32:03.994Z,29.72
2018-09-12T12:33:03.801Z,29.93
2018-09-12T12:34:03.805Z,29.84
2018-09-12T12:35:03.812Z,29.78
2018-09-12T12:36:03.822Z,29.86
2018-09-12T12:37:03.833Z,29.84
2018-09-12T12:38:03.843Z,29.68
2018-09-12T12:39:03.846Z,29.86
2018-09-12T12:40:03.860Z,30.30
2018-09-12T12:41:03.863Z,30.43
2018-09-12T12:42:03.871Z,30.09
2018-09-12T12:43:03.878Z,29.76
2018-09-12T12:44:03.889Z,29.88
2018-09-12T12:45:03.897Z,29.57
2018-09-12T12:46:03.903Z,29.20
2018-09-12T12:47:03.914Z,28.91
2018-09-12T12:48:03.917Z,28.42
2018-09-12T12:49:03.925Z,28.26
2018-09-12T12:50:03.931Z,28.14
2018-09-12T12:51:03.945Z,27.92
2018-09-12T12:52:03.944Z,27.60
2018-09-12T12:53:03.952Z,27.47
2018-09-12T12:54:03.955Z,27.25
2018-09-12T12:55:03.964Z,26.93
2018-09-12T12:56:03.965Z,26.40